createdAt,value
2023-01-13T00:02:50.232Z,69.17
2023-01-13T00:05:54.353Z,69.18
2023-01-13T00:08:58.373Z,69.48
2023-01-13T00:12:02.386Z,69.32
2023-01-13T00:15:07.804Z,69.26
2023-01-13T00:18:11.845Z,69.40
2023-01-13T00:21:18.938Z,69.36
2023-01-13T00:24:23.158Z,69.00
2023-01-13T00:27:28.157Z,69.10
2023-01-13T00:30:32.827Z,69.40
2023-01-13T00:33:37.623Z,69.34
2023-01-13T00:36:41.677Z,69.24
2023-01-13T00:39:46.104Z,69.21
2023-01-13T00:43:08.857Z,69.04
2023-01-13T00:46:16.203Z,69.24
2023-01-13T00:49:20.368Z,69.28
2023-01-13T00:52:24.388Z,69.59
2023-01-13T00:55:31.353Z,69.39
2023-01-13T00:58:36.256Z,69.29
2023-01-13T01:01:41.660Z,69.34
2023-01-13T01:04:45.879Z,69.55
2023-01-13T01:07:50.204Z,69.39
2023-01-13T01:11:21.170Z,69.42
2023-01-13T01:14:25.272Z,69.27
2023-01-13T01:17:29.288Z,69.15
2023-01-13T01:20:33.307Z,69.34
2023-01-13T01:23:39.128Z,69.66
2023-01-13T01:26:43.532Z,69.47
2023-01-13T01:29:47.601Z,69.58
2023-01-13T01:32:51.614Z,69.80
2023-01-13T01:35:55.632Z,69.82
2023-01-13T01:39:00.128Z,69.91
2023-01-13T01:42:23.227Z,69.75
2023-01-13T01:45:30.827Z,69.97
2023-01-13T01:48:42.318Z,69.92
2023-01-13T01:51:55.549Z,69.65
2023-01-13T01:55:02.337Z,69.98
2023-01-13T01:58:06.444Z,70.02
2023-01-13T02:01:12.736Z,70.04
2023-01-13T02:04:23.500Z,69.93
2023-01-13T02:07:30.881Z,69.70
2023-01-13T02:10:36.436Z,70.11
2023-01-13T02:13:40.762Z,69.97
2023-01-13T02:17:08.225Z,70.00
2023-01-13T02:20:28.831Z,70.10
2023-01-13T02:23:57.859Z,70.15
2023-01-13T02:27:20.281Z,70.36
2023-01-13T02:31:10.172Z,70.49
2023-01-13T02:34:22.793Z,70.79
2023-01-13T02:37:31.844Z,70.81
2023-01-13T02:40:51.298Z,70.94
2023-01-13T02:44:10.594Z,70.89
2023-01-13T02:47:23.191Z,70.93
2023-01-13T02:50:32.656Z,70.73
2023-01-13T02:54:03.484Z,70.77
2023-01-13T02:57:11.386Z,70.49
2023-01-13T03:00:17.191Z,70.61
2023-01-13T03:03:21.420Z,70.90
2023-01-13T03:06:58.603Z,70.71
2023-01-13T03:10:14.597Z,71.02
2023-01-13T03:13:30.921Z,71.14
2023-01-13T03:16:40.877Z,71.23
2023-01-13T03:20:21.100Z,71.09
2023-01-13T03:23:33.237Z,71.04
2023-01-13T03:26:43.545Z,71.25
2023-01-13T03:29:53.916Z,71.13
2023-01-13T03:33:08.228Z,71.40
2023-01-13T03:36:16.178Z,71.23
2023-01-13T03:39:29.598Z,71.42
2023-01-13T03:42:37.082Z,71.35
2023-01-13T03:45:43.144Z,71.19
2023-01-13T03:48:52.815Z,71.25
2023-01-13T03:52:01.841Z,71.41
2023-01-13T03:55:37.910Z,71.54
2023-01-13T03:58:46.737Z,71.82
2023-01-13T04:02:00.981Z,72.02
2023-01-13T04:05:09.258Z,71.81
2023-01-13T04:08:25.008Z,71.78
2023-01-13T04:11:35.570Z,71.75
2023-01-13T04:14:40.882Z,71.51
2023-01-13T04:17:44.993Z,71.62
2023-01-13T04:20:51.109Z,71.49
2023-01-13T04:23:55.128Z,71.57
2023-01-13T04:26:59.163Z,71.68
2023-01-13T04:30:04.671Z,71.56
2023-01-13T04:33:09.408Z,71.49
2023-01-13T04:36:13.547Z,71.77
2023-01-13T04:39:18.062Z,71.74
2023-01-13T04:42:21.888Z,71.89
2023-01-13T04:45:26.006Z,72.02
2023-01-13T04:48:30.023Z,72.12
2023-01-13T04:51:34.118Z,72.29
2023-01-13T04:54:38.059Z,72.17
2023-01-13T04:57:42.565Z,71.94
2023-01-13T05:00:46.694Z,71.91
2023-01-13T05:03:50.587Z,72.04
2023-01-13T05:06:54.555Z,72.40
2023-01-13T05:09:58.526Z,72.09
2023-01-13T05:13:21.089Z,71.95
2023-01-13T05:16:43.820Z,71.91
2023-01-13T05:19:48.047Z,71.80
2023-01-13T05:23:10.722Z,72.02
2023-01-13T05:26:14.825Z,71.85
2023-01-13T05:29:18.754Z,71.94
2023-01-13T05:32:24.092Z,72.15
2023-01-13T05:35:29.879Z,72.75
2023-01-13T05:38:33.863Z,72.59
2023-01-13T05:41:56.632Z,73.03
2023-01-13T05:45:00.512Z,73.63
2023-01-13T05:48:04.681Z,73.65
2023-01-13T05:51:11.660Z,73.97
2023-01-13T05:54:15.613Z,74.34
2023-01-13T05:57:19.681Z,74.45
2023-01-13T06:00:23.893Z,74.90
2023-01-13T06:03:28.114Z,74.70
2023-01-13T06:06:32.006Z,74.80
2023-01-13T06:09:36.046Z,74.78
2023-01-13T06:12:39.992Z,75.23
2023-01-13T06:15:44.531Z,75.23
2023-01-13T06:18:48.429Z,75.31
2023-01-13T06:21:52.624Z,75.38
2023-01-13T06:24:56.600Z,75.33
2023-01-13T06:28:00.963Z,75.36
2023-01-13T06:31:07.799Z,75.40
2023-01-13T06:34:14.431Z,75.37
2023-01-13T06:37:23.438Z,75.73
2023-01-13T06:40:27.779Z,75.48
2023-01-13T06:43:32.169Z,76.02
2023-01-13T06:46:36.967Z,75.67
2023-01-13T06:49:41.129Z,75.71
2023-01-13T06:52:45.262Z,76.02
2023-01-13T06:55:49.306Z,76.13
2023-01-13T06:58:53.310Z,75.91
2023-01-13T07:01:57.483Z,76.22
2023-01-13T07:05:01.640Z,76.18
2023-01-13T07:08:06.687Z,76.34
2023-01-13T07:11:10.704Z,76.36
2023-01-13T07:14:33.364Z,76.08
2023-01-13T07:17:37.344Z,76.52
2023-01-13T07:20:41.303Z,76.14
2023-01-13T07:23:46.414Z,76.01
2023-01-13T07:26:51.668Z,76.27
2023-01-13T07:29:55.568Z,76.10
2023-01-13T07:32:59.599Z,76.17
2023-01-13T07:36:05.457Z,76.16
2023-01-13T07:39:09.361Z,76.26
2023-01-13T07:42:32.475Z,76.04
2023-01-13T07:45:36.613Z,75.86
2023-01-13T07:48:40.780Z,76.14
2023-01-13T07:51:44.802Z,75.75
2023-01-13T07:54:49.820Z,75.58
2023-01-13T07:57:53.827Z,75.58
2023-01-13T08:00:58.339Z,75.39
2023-01-13T08:04:02.487Z,75.83
2023-01-13T08:07:06.706Z,75.72
2023-01-13T08:10:11.261Z,75.56
2023-01-13T08:13:20.013Z,75.50
2023-01-13T08:16:24.678Z,75.71
2023-01-13T08:19:28.608Z,75.53
2023-01-13T08:22:33.337Z,75.83
2023-01-13T08:25:37.569Z,75.71
2023-01-13T08:28:41.788Z,75.60
2023-01-13T08:31:45.804Z,75.40
2023-01-13T08:34:49.749Z,75.50
2023-01-13T08:37:53.980Z,75.50
2023-01-13T08:40:58.016Z,75.53
2023-01-13T08:44:02.083Z,75.47
2023-01-13T08:47:06.707Z,75.62
2023-01-13T08:50:11.297Z,75.37
2023-01-13T08:53:15.233Z,75.27
2023-01-13T08:56:19.265Z,74.89
2023-01-13T08:59:23.564Z,74.70
2023-01-13T09:02:27.811Z,74.29
2023-01-13T09:05:32.038Z,74.03
2023-01-13T09:08:36.159Z,74.30
2023-01-13T09:12:02.356Z,74.08
2023-01-13T09:15:07.645Z,74.03
2023-01-13T09:18:12.757Z,73.73
2023-01-13T09:21:19.900Z,73.48
2023-01-13T09:24:25.669Z,73.48
2023-01-13T09:27:29.892Z,72.60
2023-01-13T09:30:33.895Z,72.87
2023-01-13T09:33:56.503Z,72.67
2023-01-13T09:37:00.931Z,72.66
2023-01-13T09:40:09.726Z,72.30
2023-01-13T09:43:44.447Z,71.98
2023-01-13T09:46:57.423Z,72.02
2023-01-13T09:50:13.620Z,72.02
2023-01-13T09:53:27.992Z,71.75
2023-01-13T09:56:31.994Z,71.87
2023-01-13T09:59:36.947Z,72.09
2023-01-13T10:03:12.762Z,71.49
2023-01-13T10:06:49.906Z,71.96
2023-01-13T10:09:55.641Z,71.29
2023-01-13T10:13:14.507Z,71.60
2023-01-13T10:16:36.854Z,71.67
2023-01-13T10:19:40.677Z,71.50
2023-01-13T10:23:01.979Z,71.51
2023-01-13T10:26:43.644Z,71.45
2023-01-13T10:29:47.618Z,71.12
2023-01-13T10:33:00.825Z,70.76
2023-01-13T10:36:21.515Z,70.66
2023-01-13T10:39:25.941Z,70.55
2023-01-13T10:42:30.701Z,70.47
2023-01-13T10:45:34.714Z,70.83
2023-01-13T10:48:51.327Z,70.55
2023-01-13T10:51:56.158Z,70.54
2023-01-13T10:55:01.196Z,70.43
2023-01-13T10:58:18.767Z,70.37
2023-01-13T11:01:26.335Z,70.30
2023-01-13T11:04:37.673Z,70.21
2023-01-13T11:07:50.136Z,69.98
2023-01-13T11:10:56.747Z,69.83
2023-01-13T11:14:24.184Z,69.83
2023-01-13T11:17:28.090Z,69.61
2023-01-13T11:20:42.195Z,69.61
2023-01-13T11:23:55.642Z,69.61
2023-01-13T11:27:05.631Z,69.68
2023-01-13T11:30:29.821Z,69.49
2023-01-13T11:33:58.724Z,69.64
2023-01-13T11:37:12.857Z,69.34
2023-01-13T11:40:20.965Z,69.20
2023-01-13T11:43:42.742Z,69.42
2023-01-13T11:46:50.566Z,69.27
2023-01-13T11:49:56.080Z,69.25
2023-01-13T11:53:12.554Z,69.11
2023-01-13T11:56:27.882Z,68.94
2023-01-13T11:59:44.144Z,68.90
2023-01-13T12:02:58.486Z,68.80
2023-01-13T12:06:21.508Z,68.70
2023-01-13T12:09:53.983Z,68.49
2023-01-13T12:13:13.042Z,68.45
2023-01-13T12:16:25.768Z,68.23
2023-01-13T12:19:32.445Z,68.15
2023-01-13T12:22:37.517Z,68.18
2023-01-13T12:25:47.882Z,68.57
2023-01-13T12:29:15.272Z,68.41
2023-01-13T12:36:32.944Z,68.28
2023-01-13T12:39:51.759Z,68.47
2023-01-13T12:43:22.678Z,68.27
2023-01-13T12:46:26.547Z,68.20
2023-01-13T12:49:35.427Z,67.88
2023-01-13T12:52:46.349Z,67.90
2023-01-13T12:55:52.103Z,67.84
2023-01-13T12:59:33.367Z,67.93
2023-01-13T13:02:43.766Z,68.15
2023-01-13T13:05:55.901Z,68.02
2023-01-13T13:09:05.160Z,68.03
2023-01-13T13:12:50.110Z,67.81
2023-01-13T13:16:26.270Z,67.58
2023-01-13T13:19:30.748Z,67.40
2023-01-13T13:22:50.902Z,67.54
2023-01-13T13:26:21.782Z,67.60
2023-01-13T13:29:35.753Z,67.67
2023-01-13T13:32:50.566Z,67.78
2023-01-13T13:36:21.410Z,67.61
2023-01-13T13:39:50.435Z,67.51
2023-01-13T13:43:16.777Z,67.45
2023-01-13T13:46:45.444Z,67.54
2023-01-13T13:49:54.444Z,67.45
2023-01-13T13:53:05.909Z,67.64
2023-01-13T13:56:21.571Z,67.45
2023-01-13T13:59:31.205Z,67.74
2023-01-13T14:02:37.698Z,67.57
2023-01-13T14:06:02.831Z,67.64
2023-01-13T14:09:16.933Z,67.64
2023-01-13T14:12:24.844Z,67.63
2023-01-13T14:15:33.777Z,67.68
2023-01-13T14:18:45.846Z,67.93
2023-01-13T14:21:50.230Z,67.87
2023-01-13T14:24:58.002Z,67.90
2023-01-13T14:28:20.743Z,67.64
2023-01-13T14:31:25.579Z,68.01
2023-01-13T14:34:32.411Z,67.86
2023-01-13T14:37:42.410Z,67.93
2023-01-13T14:40:47.243Z,67.78
2023-01-13T14:43:54.628Z,67.86
2023-01-13T14:47:04.381Z,68.00
2023-01-13T14:50:11.384Z,67.95
2023-01-13T14:53:39.605Z,68.13
2023-01-13T14:56:47.330Z,68.12
2023-01-13T15:00:14.407Z,68.42
2023-01-13T15:03:21.737Z,68.28
2023-01-13T15:06:26.817Z,68.28
2023-01-13T15:09:40.896Z,68.36
2023-01-13T15:12:45.165Z,68.01
2023-01-13T15:15:55.811Z,67.82
2023-01-13T15:18:59.798Z,67.78
2023-01-13T15:22:03.810Z,67.67
2023-01-13T15:25:12.138Z,67.64
2023-01-13T15:28:22.600Z,67.71
2023-01-13T15:31:28.379Z,67.63
2023-01-13T15:34:32.473Z,67.80
2023-01-13T15:37:37.275Z,67.92
2023-01-13T15:40:41.835Z,67.78
2023-01-13T15:44:04.551Z,67.70
2023-01-13T15:47:09.917Z,67.84
2023-01-13T15:50:16.146Z,68.01
2023-01-13T15:53:20.505Z,68.09
2023-01-13T15:56:26.781Z,68.23
2023-01-13T15:59:30.694Z,68.28
2023-01-13T16:02:34.723Z,68.33
2023-01-13T16:05:39.647Z,68.30
2023-01-13T16:08:43.789Z,68.45
2023-01-13T16:11:47.690Z,68.63
2023-01-13T16:14:51.646Z,68.70
2023-01-13T16:18:01.070Z,68.91
2023-01-13T16:21:05.297Z,68.85
2023-01-13T16:24:09.281Z,69.14
2023-01-13T16:27:18.627Z,69.17
2023-01-13T16:30:24.310Z,69.42
2023-01-13T16:33:28.341Z,69.78
2023-01-13T16:36:35.492Z,69.83
2023-01-13T16:39:39.455Z,69.78
2023-01-13T16:42:43.476Z,69.88
2023-01-13T16:45:47.393Z,70.14
2023-01-13T16:48:53.676Z,70.29
2023-01-13T16:51:57.684Z,70.30
2023-01-13T16:55:01.594Z,70.26
2023-01-13T16:58:07.094Z,70.27
2023-01-13T17:01:22.913Z,70.53
2023-01-13T17:04:26.910Z,70.51
2023-01-13T17:07:31.418Z,70.32
2023-01-13T17:10:36.350Z,70.46
2023-01-13T17:13:41.108Z,70.50
2023-01-13T17:16:45.248Z,70.51
2023-01-13T17:19:50.225Z,70.45
2023-01-13T17:22:58.317Z,70.39
2023-01-13T17:26:02.789Z,70.25
2023-01-13T17:29:11.708Z,70.05
2023-01-13T17:32:17.940Z,70.25
2023-01-13T17:35:24.963Z,70.35
2023-01-13T17:38:29.272Z,70.38
2023-01-13T17:41:33.288Z,70.70
2023-01-13T17:44:38.287Z,70.95
2023-01-13T17:47:42.240Z,71.20
2023-01-13T17:50:52.564Z,71.54
2023-01-13T17:53:56.967Z,71.69
2023-01-13T17:57:00.874Z,71.87
2023-01-13T18:00:05.779Z,71.89
2023-01-13T18:03:17.726Z,72.16
2023-01-13T18:06:23.389Z,72.32
2023-01-13T18:09:27.445Z,72.15
2023-01-13T18:12:31.582Z,72.56
2023-01-13T18:15:36.392Z,72.50
2023-01-13T18:18:42.726Z,72.61
2023-01-13T18:22:06.957Z,72.64
2023-01-13T18:25:32.682Z,72.58
2023-01-13T18:28:36.698Z,72.25
2023-01-13T18:31:40.736Z,72.02
2023-01-13T18:34:44.719Z,72.24
2023-01-13T18:37:48.944Z,72.22
2023-01-13T18:40:52.966Z,72.06
2023-01-13T18:43:56.980Z,72.00
2023-01-13T18:47:00.993Z,71.43
2023-01-13T18:50:05.883Z,71.25
2023-01-13T18:53:09.846Z,71.27
2023-01-13T18:56:14.671Z,71.00
2023-01-13T18:59:18.799Z,70.68
2023-01-13T19:02:23.577Z,70.73
2023-01-13T19:05:27.754Z,70.80
2023-01-13T19:08:33.599Z,70.67
2023-01-13T19:11:37.730Z,70.67
2023-01-13T19:14:44.308Z,70.38
2023-01-13T19:17:48.247Z,70.25
2023-01-13T19:20:52.339Z,70.16
2023-01-13T19:23:57.036Z,69.91
2023-01-13T19:27:01.068Z,69.80
2023-01-13T19:30:06.085Z,69.85
2023-01-13T19:33:10.056Z,69.77
2023-01-13T19:36:14.043Z,69.70
2023-01-13T19:39:18.080Z,69.72
2023-01-13T19:42:41.013Z,69.81
2023-01-13T19:45:44.963Z,69.66
2023-01-13T19:48:49.169Z,69.76
2023-01-13T19:51:53.085Z,69.65
2023-01-13T19:54:56.998Z,69.61
2023-01-13T19:58:00.942Z,69.59
2023-01-13T20:01:10.227Z,69.56
2023-01-13T20:04:17.136Z,69.59
2023-01-13T20:07:21.366Z,69.70
2023-01-13T20:10:25.574Z,69.77
2023-01-13T20:13:32.109Z,69.90
2023-01-13T20:16:36.029Z,70.03
2023-01-13T20:19:40.126Z,70.04
2023-01-13T20:22:44.373Z,70.00
2023-01-13T20:25:48.378Z,70.22
2023-01-13T20:28:52.440Z,70.25
2023-01-13T20:31:57.024Z,70.07
2023-01-13T20:35:01.181Z,70.22
2023-01-13T20:38:05.202Z,70.32
2023-01-13T20:41:27.644Z,70.46
2023-01-13T20:44:31.671Z,70.40
2023-01-13T20:47:35.657Z,70.38
2023-01-13T20:50:40.314Z,70.65
2023-01-13T20:53:44.224Z,70.76
2023-01-13T20:56:48.343Z,70.75
2023-01-13T20:59:52.295Z,71.11
2023-01-13T21:02:56.378Z,71.27
2023-01-13T21:06:00.597Z,71.50
2023-01-13T21:09:04.713Z,71.61
2023-01-13T21:12:32.532Z,71.70
2023-01-13T21:15:36.489Z,71.75
2023-01-13T21:18:59.726Z,71.72
2023-01-13T21:22:04.299Z,71.91
2023-01-13T21:25:09.206Z,71.91
2023-01-13T21:28:14.070Z,71.94
2023-01-13T21:31:18.376Z,71.96
2023-01-13T21:34:22.412Z,71.94
2023-01-13T21:37:26.427Z,72.12
2023-01-13T21:40:30.358Z,72.24
2023-01-13T21:43:54.852Z,72.12
2023-01-13T21:47:17.474Z,72.20
2023-01-13T21:50:24.686Z,72.34
2023-01-13T21:53:28.901Z,72.25
2023-01-13T21:56:32.915Z,72.43
2023-01-13T21:59:36.835Z,72.36
2023-01-13T22:02:41.029Z,72.52
2023-01-13T22:05:46.199Z,72.50
2023-01-13T22:08:50.111Z,72.32
2023-01-13T22:11:54.011Z,72.37
2023-01-13T22:14:58.239Z,72.22
2023-01-13T22:18:02.137Z,72.35
2023-01-13T22:21:06.674Z,72.39
2023-01-13T22:24:10.594Z,72.42
2023-01-13T22:27:20.819Z,72.59
2023-01-13T22:30:25.272Z,72.63
2023-01-13T22:33:29.304Z,72.84
2023-01-13T22:36:33.228Z,72.78
2023-01-13T22:39:37.632Z,72.76
2023-01-13T22:42:43.156Z,72.83
2023-01-13T22:45:57.564Z,72.60
2023-01-13T22:49:01.475Z,73.04
2023-01-13T22:52:06.091Z,73.05
2023-01-13T22:55:10.009Z,72.93
2023-01-13T22:58:13.889Z,73.32
2023-01-13T23:01:17.993Z,73.53
2023-01-13T23:04:22.140Z,73.32
2023-01-13T23:07:26.373Z,73.66
2023-01-13T23:10:30.397Z,73.74
2023-01-13T23:13:35.330Z,73.31
2023-01-13T23:16:40.741Z,73.96
2023-01-13T23:19:44.797Z,74.07
2023-01-13T23:22:48.730Z,73.88
2023-01-13T23:25:53.739Z,74.09
2023-01-13T23:28:59.921Z,73.92
2023-01-13T23:32:04.206Z,74.52
2023-01-13T23:35:09.075Z,74.28
2023-01-13T23:38:12.987Z,74.12
2023-01-13T23:41:20.499Z,74.38
2023-01-13T23:44:24.526Z,74.44
2023-01-13T23:47:28.877Z,74.40
2023-01-13T23:50:32.885Z,74.77
2023-01-13T23:53:40.413Z,74.45
2023-01-13T23:56:44.672Z,74.51
2023-01-13T23:59:48.619Z,74.34
